Time;durP1;ratioP1;P1;durP2;ratioP2;P2;SDS_P1;SDS_P2;PMS_P1;PMS_P2;Temp;Humidity;BMP_temperature;BMP_pressure;BME280_temperature;BME280_humidity;BME280_pressure;Samples;Min_cycle;Max_cycle;Signal;HPM_P1;HPM_P2
2022/12/19 00:00:46;;;;;;;50.13;28.13;;;0.90;99.90;;;;;;5058977;28;20062;-70
2022/12/19 00:03:12;;;;;;;50.60;28.60;;;0.90;99.90;;;;;;5062023;28;20040;-70
2022/12/19 00:05:38;;;;;;;49.87;27.93;;;0.90;99.90;;;;;;5061988;28;20033;-70
2022/12/19 00:08:06;;;;;;;43.70;26.73;;;0.90;99.90;;;;;;5060962;28;20048;-70
2022/12/19 00:10:32;;;;;;;45.73;27.57;;;0.90;99.90;;;;;;5079230;28;20056;-72
2022/12/19 00:12:57;;;;;;;45.57;27.83;;;0.90;99.90;;;;;;5042976;28;20104;-70
2022/12/19 00:15:23;;;;;;;48.60;29.00;;;1.00;99.90;;;;;;5045712;28;20048;-70
2022/12/19 00:17:49;;;;;;;46.10;28.83;;;1.00;99.90;;;;;;5060043;28;20078;-70
2022/12/19 00:20:14;;;;;;;45.80;28.23;;;1.00;99.90;;;;;;5079896;28;20049;-70
2022/12/19 00:22:40;;;;;;;47.20;27.57;;;1.00;99.90;;;;;;5042132;28;20075;-70
2022/12/19 00:25:06;;;;;;;46.57;28.20;;;1.00;99.90;;;;;;5044431;28;20039;-70
2022/12/19 00:27:35;;;;;;;49.80;29.37;;;1.00;99.90;;;;;;5078418;28;20071;-70
2022/12/19 00:30:01;;;;;;;51.70;29.40;;;1.00;99.90;;;;;;5074794;28;20066;-69
2022/12/19 00:32:27;;;;;;;50.90;29.97;;;1.00;99.90;;;;;;5078053;28;20045;-70
2022/12/19 00:34:53;;;;;;;46.00;29.23;;;1.00;99.90;;;;;;5075847;28;20174;-69
2022/12/19 00:37:18;;;;;;;48.47;29.37;;;1.00;99.90;;;;;;5061818;28;20056;-70
2022/12/19 00:39:44;;;;;;;46.33;28.20;;;1.00;99.90;;;;;;5077289;28;20040;-70
2022/12/19 00:42:10;;;;;;;51.30;28.50;;;1.10;99.90;;;;;;5060805;28;20464;-69
2022/12/19 00:44:35;;;;;;;49.43;28.30;;;1.10;99.90;;;;;;5078893;28;20040;-70
2022/12/19 00:47:01;;;;;;;45.83;28.03;;;1.10;99.90;;;;;;5045172;28;20049;-71
2022/12/19 00:49:27;;;;;;;49.20;28.97;;;1.10;99.90;;;;;;5045549;28;20086;-71
2022/12/19 00:51:54;;;;;;;49.33;28.37;;;1.10;99.90;;;;;;5076351;28;20071;-71
2022/12/19 00:54:20;;;;;;;49.50;28.73;;;1.10;99.90;;;;;;5045496;28;20037;-71
2022/12/19 00:56:46;;;;;;;46.53;26.90;;;1.10;99.90;;;;;;5042592;28;20051;-71
2022/12/19 00:59:11;;;;;;;48.40;28.27;;;1.10;99.90;;;;;;5043967;28;20384;-71
2022/12/19 01:01:40;;;;;;;49.37;28.53;;;1.20;99.90;;;;;;5044353;28;20029;-71
2022/12/19 01:04:07;;;;;;;53.27;29.20;;;1.20;99.90;;;;;;5075432;28;20096;-71
2022/12/19 01:06:33;;;;;;;47.67;27.50;;;1.20;99.90;;;;;;5060777;28;20465;-71
2022/12/19 01:08:59;;;;;;;49.97;27.87;;;1.20;99.90;;;;;;5059292;28;20040;-71
2022/12/19 01:14:11;;;;;;;51.40;28.33;;;1.20;99.90;;;;;;5087708;28;20048;-71
2022/12/19 01:16:36;;;;;;;50.40;27.60;;;1.30;99.90;;;;;;5059522;28;20040;-71
2022/12/19 01:19:02;;;;;;;50.10;29.27;;;1.30;99.90;;;;;;5060923;28;20066;-71
2022/12/19 01:21:28;;;;;;;46.47;26.93;;;1.30;99.90;;;;;;5024796;28;20041;-71
2022/12/19 01:23:54;;;;;;;48.63;27.50;;;1.30;99.90;;;;;;5044473;28;20140;-71
2022/12/19 01:26:19;;;;;;;46.50;27.10;;;1.30;99.90;;;;;;5042293;28;20040;-71
2022/12/19 01:28:45;;;;;;;49.47;28.13;;;1.30;99.90;;;;;;5044106;28;20041;-71
2022/12/19 01:31:10;;;;;;;49.23;27.87;;;1.30;99.90;;;;;;5043251;28;20098;-71
2022/12/19 01:33:36;;;;;;;50.63;27.43;;;1.30;99.90;;;;;;5042535;28;20589;-71
2022/12/19 01:36:06;;;;;;;47.67;27.73;;;1.30;99.90;;;;;;5044271;28;20074;-71
2022/12/19 01:38:34;;;;;;;49.43;28.20;;;1.40;99.90;;;;;;5042346;28;20074;-71
2022/12/19 01:41:00;;;;;;;48.40;27.00;;;1.40;99.90;;;;;;5062159;28;20045;-71
2022/12/19 01:43:29;;;;;;;51.30;28.17;;;1.40;99.90;;;;;;5058242;28;20135;-71
2022/12/19 01:46:04;;;;;;;51.03;27.97;;;1.40;99.90;;;;;;5060173;28;20043;-71
2022/12/19 01:48:41;;;;;;;52.23;28.73;;;1.40;99.90;;;;;;5076694;28;20041;-70
2022/12/19 01:51:18;;;;;;;53.17;29.53;;;1.40;99.90;;;;;;5040922;28;20051;-71
2022/12/19 01:53:57;;;;;;;52.17;27.27;;;1.40;99.90;;;;;;5075238;28;20112;-71
2022/12/19 01:56:27;;;;;;;54.03;28.37;;;1.50;99.90;;;;;;5073049;28;20029;-71
2022/12/19 01:58:56;;;;;;;48.33;27.87;;;1.50;99.90;;;;;;5060187;28;20036;-71
2022/12/19 02:01:23;;;;;;;49.87;27.63;;;1.50;99.90;;;;;;5057787;28;20099;-71
2022/12/19 02:03:50;;;;;;;48.47;27.27;;;1.50;99.90;;;;;;5058242;28;20468;-71
2022/12/19 02:06:16;;;;;;;50.77;27.43;;;1.60;99.90;;;;;;5077031;28;20135;-71
2022/12/19 02:08:45;;;;;;;48.73;28.50;;;1.50;99.90;;;;;;5058040;28;20046;-71
2022/12/19 02:11:10;;;;;;;51.20;28.13;;;1.60;99.90;;;;;;5059484;28;20032;-71
2022/12/19 02:13:36;;;;;;;54.80;29.57;;;1.60;99.90;;;;;;5074881;28;20051;-70
2022/12/19 02:16:43;;;;;;;53.67;30.17;;;1.60;99.90;;;;;;5043784;28;20462;-71
2022/12/19 02:19:15;;;;;;;48.87;29.10;;;1.60;99.90;;;;;;5058236;28;20059;-71
2022/12/19 02:21:51;;;;;;;49.03;28.02;;;1.60;99.90;;;;;;5066921;28;20052;-71
2022/12/19 02:25:01;;;;;;;53.20;29.20;;;1.60;99.90;;;;;;5060121;28;20044;-71
2022/12/19 02:27:50;;;;;;;53.90;29.87;;;1.60;99.90;;;;;;5067671;28;20112;-70
2022/12/19 02:30:34;;;;;;;53.83;30.77;;;1.60;99.90;;;;;;5074138;28;20103;-71
2022/12/19 02:33:10;;;;;;;59.30;32.07;;;1.60;99.90;;;;;;5067539;28;20105;-71
2022/12/19 02:35:44;;;;;;;59.80;33.07;;;1.60;99.90;;;;;;5059488;28;20044;-71
2022/12/19 02:38:14;;;;;;;61.43;32.43;;;1.60;99.90;;;;;;5075391;28;20038;-71
2022/12/19 02:40:57;;;;;;;66.83;35.63;;;1.60;99.90;;;;;;5066113;28;20037;-71
2022/12/19 02:43:27;;;;;;;67.30;34.60;;;1.60;99.90;;;;;;5072518;28;20045;-71
2022/12/19 02:45:54;;;;;;;63.03;34.40;;;1.60;99.90;;;;;;5077291;28;20040;-71
2022/12/19 02:48:21;;;;;;;63.33;33.50;;;1.60;99.90;;;;;;5051212;28;20053;-70
2022/12/19 02:50:48;;;;;;;65.40;34.97;;;1.60;99.90;;;;;;5058515;28;20052;-70
2022/12/19 02:53:15;;;;;;;66.23;35.17;;;1.60;99.90;;;;;;5076689;28;20048;-70
2022/12/19 02:56:10;;;;;;;71.27;36.83;;;1.60;99.90;;;;;;5040534;28;20335;-70
2022/12/19 02:59:07;;;;;;;67.27;35.10;;;1.60;99.90;;;;;;5072665;28;20122;-71
2022/12/19 03:01:41;;;;;;;76.57;38.37;;;1.60;99.90;;;;;;5079409;28;20036;-70
2022/12/19 03:04:43;;;;;;;70.27;36.67;;;1.60;99.90;;;;;;5088132;28;20050;-71
2022/12/19 03:07:12;;;;;;;72.35;37.75;;;1.60;99.90;;;;;;5063027;28;20051;-71
2022/12/19 03:09:43;;;;;;;74.63;39.00;;;1.60;99.90;;;;;;5078854;28;20040;-71
2022/12/19 03:12:20;;;;;;;69.15;38.83;;;1.60;99.90;;;;;;5079085;28;20052;-71
2022/12/19 03:14:46;;;;;;;77.53;39.27;;;1.60;99.90;;;;;;5071152;28;20045;-71
2022/12/19 03:17:12;;;;;;;78.90;38.67;;;1.60;99.90;;;;;;5044953;28;20044;-72
2022/12/19 03:19:39;;;;;;;82.50;40.43;;;1.60;99.90;;;;;;5046490;28;20051;-71
2022/12/19 03:22:07;;;;;;;79.77;39.73;;;1.70;99.90;;;;;;5061722;28;20064;-71
2022/12/19 03:24:33;;;;;;;83.03;40.27;;;1.70;99.90;;;;;;5063214;28;20037;-71
2022/12/19 03:27:05;;;;;;;75.93;39.57;;;1.70;99.90;;;;;;5029351;28;20066;-71
2022/12/19 03:29:38;;;;;;;80.47;41.75;;;1.70;99.90;;;;;;5061459;28;20053;-71
2022/12/19 03:32:09;;;;;;;79.83;39.00;;;1.70;99.90;;;;;;5069227;28;20091;-71
2022/12/19 03:34:47;;;;;;;78.17;41.13;;;1.70;99.90;;;;;;5077563;28;20055;-72
2022/12/19 03:37:17;;;;;;;78.07;40.60;;;1.80;99.90;;;;;;5079332;28;20047;-71
2022/12/19 03:39:47;;;;;;;80.93;40.30;;;1.80;99.90;;;;;;5059870;28;20040;-71
2022/12/19 03:45:03;;;;;;;84.60;41.00;;;1.80;99.90;;;;;;5078605;28;20048;-71
2022/12/19 03:47:43;;;;;;;89.13;41.80;;;1.80;99.90;;;;;;5043979;28;20071;-70
2022/12/19 03:50:09;;;;;;;94.63;45.13;;;1.80;99.90;;;;;;5062105;28;20045;-71
2022/12/19 03:52:45;;;;;;;95.27;44.00;;;1.80;99.90;;;;;;5073627;28;20063;-71
2022/12/19 03:55:25;;;;;;;83.63;43.27;;;1.90;99.90;;;;;;5061927;28;20039;-71
2022/12/19 03:57:54;;;;;;;88.13;44.03;;;1.90;99.90;;;;;;5077766;28;20044;-71
2022/12/19 04:00:20;;;;;;;95.27;44.03;;;2.00;99.90;;;;;;5066868;28;20053;-71
2022/12/19 04:02:49;;;;;;;86.47;43.10;;;2.00;99.90;;;;;;5061779;28;20051;-71
2022/12/19 04:05:24;;;;;;;92.13;44.10;;;2.00;99.90;;;;;;5060823;28;20382;-71
2022/12/19 04:07:54;;;;;;;90.23;44.27;;;2.10;99.90;;;;;;5060907;28;20075;-71
2022/12/19 04:10:23;;;;;;;93.00;41.97;;;2.10;99.90;;;;;;5060025;28;20036;-71
2022/12/19 04:13:07;;;;;;;84.03;43.20;;;2.10;99.90;;;;;;5076864;28;20040;-71
2022/12/19 04:15:47;;;;;;;87.77;43.33;;;2.20;99.90;;;;;;5077841;28;20087;-71
2022/12/19 04:18:16;;;;;;;90.90;44.67;;;2.30;99.90;;;;;;5046266;28;20113;-71
2022/12/19 04:20:48;;;;;;;91.83;45.20;;;2.30;99.90;;;;;;5039771;28;20049;-71
2022/12/19 04:23:20;;;;;;;;;;;2.30;99.90;;;;;;5062510;28;20052;-71
2022/12/19 04:25:50;;;;;;;87.05;43.53;;;2.40;99.90;;;;;;5074729;28;19924;-72
2022/12/19 04:28:18;;;;;;;93.53;46.00;;;2.40;99.90;;;;;;5078067;28;20045;-71
2022/12/19 04:30:46;;;;;;;92.50;45.63;;;2.40;99.90;;;;;;5076605;28;20052;-71
2022/12/19 04:33:11;;;;;;;92.43;44.43;;;2.50;99.90;;;;;;5061458;28;20048;-71
2022/12/19 04:35:37;;;;;;;79.60;41.83;;;2.50;99.90;;;;;;5044638;28;20044;-71
2022/12/19 04:38:03;;;;;;;82.67;42.63;;;2.50;99.90;;;;;;5060225;28;20046;-71
2022/12/19 04:40:29;;;;;;;88.87;43.53;;;2.60;99.90;;;;;;5042966;28;20052;-71
2022/12/19 04:42:54;;;;;;;88.47;42.27;;;2.60;99.90;;;;;;5043097;28;20056;-71
2022/12/19 04:45:20;;;;;;;83.13;42.27;;;2.60;99.90;;;;;;5076710;28;20036;-72
2022/12/19 04:47:46;;;;;;;81.43;41.27;;;2.70;99.90;;;;;;5059760;28;20083;-70
2022/12/19 04:50:12;;;;;;;78.50;41.93;;;2.70;99.90;;;;;;5061306;28;20082;-70
2022/12/19 04:52:37;;;;;;;86.83;42.30;;;2.70;99.90;;;;;;5070970;28;20040;-69
2022/12/19 04:55:03;;;;;;;82.47;42.00;;;2.70;99.90;;;;;;5077137;28;20037;-68
2022/12/19 04:57:30;;;;;;;77.83;40.60;;;2.80;99.90;;;;;;5061594;28;20048;-71
2022/12/19 04:59:55;;;;;;;84.17;41.17;;;2.80;99.90;;;;;;5041650;28;20500;-70
2022/12/19 05:02:21;;;;;;;79.80;39.47;;;2.80;99.90;;;;;;5044653;28;20043;-70
2022/12/19 05:04:47;;;;;;;72.90;38.47;;;2.80;99.90;;;;;;5059253;28;20058;-70
2022/12/19 05:07:13;;;;;;;80.80;39.30;;;2.90;99.90;;;;;;5061391;28;20048;-70
2022/12/19 05:09:39;;;;;;;75.90;41.03;;;2.90;99.90;;;;;;5078053;28;20048;-70
2022/12/19 05:12:05;;;;;;;74.97;39.37;;;2.90;99.90;;;;;;5043668;28;20070;-70
2022/12/19 05:14:31;;;;;;;81.30;42.60;;;2.90;99.90;;;;;;5077927;28;20048;-70
2022/12/19 05:16:57;;;;;;;83.40;40.93;;;2.90;99.90;;;;;;5075682;28;20052;-70
2022/12/19 05:19:23;;;;;;;79.43;40.40;;;2.90;99.90;;;;;;5060284;28;20427;-70
2022/12/19 05:21:48;;;;;;;78.20;40.07;;;2.90;99.90;;;;;;5042623;28;20044;-70
2022/12/19 05:24:14;;;;;;;85.20;41.67;;;3.00;99.90;;;;;;5077593;28;20867;-70
2022/12/19 05:26:40;;;;;;;79.63;40.67;;;3.00;99.90;;;;;;5057357;28;20118;-69
2022/12/19 05:29:06;;;;;;;90.47;42.77;;;3.00;99.90;;;;;;5043046;28;20048;-69
2022/12/19 05:31:32;;;;;;;83.93;43.30;;;3.00;99.90;;;;;;5077685;28;20047;-70
2022/12/19 05:33:58;;;;;;;80.50;41.00;;;3.00;99.90;;;;;;5058625;28;20032;-70
2022/12/19 05:36:23;;;;;;;83.50;43.47;;;3.10;99.90;;;;;;5044183;28;20052;-70
2022/12/19 05:38:49;;;;;;;86.50;42.23;;;3.10;99.90;;;;;;5058761;28;20101;-69
2022/12/19 05:41:18;;;;;;;83.93;42.30;;;3.10;99.90;;;;;;5078550;28;20045;-70
2022/12/19 05:43:45;;;;;;;77.67;40.23;;;3.10;99.90;;;;;;5073843;28;20032;-70
2022/12/19 05:46:11;;;;;;;90.77;43.67;;;3.10;99.90;;;;;;5076660;28;20048;-70
2022/12/19 05:48:37;;;;;;;81.30;42.10;;;3.10;99.90;;;;;;5059093;28;20056;-69
2022/12/19 05:51:04;;;;;;;87.50;44.27;;;3.10;99.90;;;;;;5058298;28;21016;-70
2022/12/19 05:53:29;;;;;;;88.77;43.37;;;3.20;99.90;;;;;;5060730;28;20053;-70
2022/12/19 05:56:06;;;;;;;82.10;42.30;;;3.20;99.90;;;;;;5059102;28;20060;-69
2022/12/19 05:58:32;;;;;;;94.93;45.43;;;3.30;99.90;;;;;;5061251;28;20451;-78
2022/12/19 06:01:10;;;;;;;80.33;41.53;;;3.30;99.90;;;;;;5054612;28;20041;-68
2022/12/19 06:03:36;;;;;;;84.63;40.80;;;3.30;99.90;;;;;;5074446;28;20048;-69
2022/12/19 06:06:10;;;;;;;76.93;39.63;;;3.30;99.90;;;;;;5043707;28;20041;-68
2022/12/19 06:08:36;;;;;;;83.53;43.53;;;3.30;99.90;;;;;;5058897;28;20173;-68
2022/12/19 06:11:04;;;;;;;82.57;42.33;;;3.40;99.90;;;;;;5079136;28;20100;-69
2022/12/19 06:13:30;;;;;;;80.57;40.87;;;3.40;99.90;;;;;;5075469;28;20055;-69
2022/12/19 06:16:01;;;;;;;78.37;39.40;;;3.40;99.90;;;;;;5077361;28;20119;-70
2022/12/19 06:18:27;;;;;;;68.43;37.17;;;3.50;99.90;;;;;;5076101;28;20100;-68
2022/12/19 06:21:01;;;;;;;75.97;38.93;;;3.50;99.90;;;;;;5059521;28;20049;-68
2022/12/19 06:23:28;;;;;;;65.57;35.43;;;3.60;99.90;;;;;;5077291;28;20052;-69
2022/12/19 06:25:58;;;;;;;69.50;36.13;;;3.60;99.90;;;;;;5075779;28;20487;-72
2022/12/19 06:28:25;;;;;;;64.90;34.90;;;3.60;99.90;;;;;;5060204;28;20063;-75
2022/12/19 06:30:51;;;;;;;73.23;37.37;;;3.70;99.90;;;;;;5075020;28;20040;-71
2022/12/19 06:33:17;;;;;;;70.80;35.97;;;3.70;99.90;;;;;;5063067;28;20075;-72
2022/12/19 06:35:43;;;;;;;66.83;36.57;;;3.70;99.90;;;;;;5081060;28;20072;-71
2022/12/19 06:38:09;;;;;;;68.47;37.40;;;3.80;99.90;;;;;;5044912;28;20040;-72
2022/12/19 06:43:27;;;;;;;;;;;3.80;99.90;;;;;;5069972;28;20056;-72
2022/12/19 06:45:52;;;;;;;60.77;33.07;;;3.80;99.90;;;;;;5037562;28;19928;-72
2022/12/19 06:48:18;;;;;;;61.23;35.03;;;3.90;99.90;;;;;;5040177;28;20067;-71
2022/12/19 06:50:44;;;;;;;63.97;34.13;;;3.90;99.90;;;;;;5043612;28;20064;-71
2022/12/19 06:53:09;;;;;;;68.07;34.77;;;3.90;99.90;;;;;;5046706;28;20495;-72
2022/12/19 06:55:36;;;;;;;60.27;32.47;;;3.90;99.90;;;;;;5067182;28;20043;-72
2022/12/19 06:58:03;;;;;;;59.97;31.70;;;3.90;99.90;;;;;;5063036;28;20044;-72
2022/12/19 07:00:29;;;;;;;65.83;33.57;;;3.90;99.90;;;;;;5078597;28;20469;-72
2022/12/19 07:02:57;;;;;;;51.90;28.83;;;3.90;99.90;;;;;;5079671;28;20076;-72
2022/12/19 07:05:23;;;;;;;57.13;30.97;;;4.00;99.90;;;;;;5062029;28;20055;-72
2022/12/19 07:07:49;;;;;;;57.10;29.67;;;4.00;99.90;;;;;;5079247;28;20044;-72
2022/12/19 07:10:15;;;;;;;48.33;27.23;;;4.00;99.90;;;;;;5080310;28;20068;-72
2022/12/19 07:12:40;;;;;;;53.80;29.07;;;4.00;99.90;;;;;;5061808;28;20471;-72
2022/12/19 07:15:06;;;;;;;55.63;29.10;;;4.00;99.90;;;;;;5063797;28;20150;-72
2022/12/19 07:17:32;;;;;;;58.47;31.33;;;4.10;99.90;;;;;;5045465;28;20080;-72
2022/12/19 07:19:58;;;;;;;55.70;29.83;;;4.10;99.90;;;;;;5043784;28;20445;-72
2022/12/19 07:22:28;;;;;;;51.63;28.73;;;4.10;99.90;;;;;;5043731;28;20058;-72
2022/12/19 07:24:55;;;;;;;56.57;30.37;;;4.10;99.90;;;;;;5046346;28;20056;-73
2022/12/19 07:27:21;;;;;;;61.13;30.93;;;4.10;99.90;;;;;;5063609;28;20056;-72
2022/12/19 07:29:47;;;;;;;58.10;30.57;;;4.20;99.90;;;;;;5041499;28;20045;-73
2022/12/19 07:32:13;;;;;;;63.50;31.00;;;4.20;99.90;;;;;;5090004;28;20630;-72
2022/12/19 07:34:40;;;;;;;58.03;31.67;;;4.20;99.90;;;;;;5044414;28;20111;-72
2022/12/19 07:37:06;;;;;;;52.63;28.23;;;4.20;99.90;;;;;;5046824;28;20075;-72
2022/12/19 07:39:32;;;;;;;55.20;28.97;;;4.20;99.90;;;;;;5046012;28;20044;-72
2022/12/19 07:41:57;;;;;;;51.83;28.83;;;4.30;99.90;;;;;;5062114;28;20056;-72
2022/12/19 07:44:23;;;;;;;52.30;28.70;;;4.30;99.90;;;;;;5063189;28;20088;-72
2022/12/19 07:46:49;;;;;;;47.97;26.70;;;4.30;99.90;;;;;;5079175;28;20043;-73
2022/12/19 07:49:14;;;;;;;53.33;28.50;;;4.30;99.90;;;;;;5042993;28;20037;-72
2022/12/19 07:51:40;;;;;;;48.77;27.13;;;4.30;99.90;;;;;;5037639;28;20048;-73
2022/12/19 07:54:06;;;;;;;56.60;29.47;;;4.40;99.90;;;;;;5079635;28;20071;-73
2022/12/19 07:56:32;;;;;;;53.33;28.23;;;4.30;99.90;;;;;;5061683;28;20071;-72
2022/12/19 07:58:57;;;;;;;51.63;27.80;;;4.40;99.90;;;;;;5061668;28;20044;-72
2022/12/19 08:01:23;;;;;;;59.13;29.77;;;4.30;99.90;;;;;;5079628;28;20048;-72
2022/12/19 08:03:49;;;;;;;53.10;28.90;;;4.40;99.90;;;;;;5077608;28;20051;-73
2022/12/19 08:06:15;;;;;;;58.17;30.90;;;4.40;99.90;;;;;;5062898;28;20051;-73
2022/12/19 08:08:41;;;;;;;57.33;30.10;;;4.40;99.90;;;;;;5078206;28;20040;-72
2022/12/19 08:11:26;;;;;;;52.00;27.77;;;4.40;99.90;;;;;;5079143;28;20076;-72
2022/12/19 08:13:52;;;;;;;55.13;27.50;;;4.40;99.90;;;;;;5080036;28;20056;-71
2022/12/19 08:16:18;;;;;;;55.83;28.97;;;4.50;99.90;;;;;;5060070;28;20071;-72
2022/12/19 08:18:43;;;;;;;51.77;29.03;;;4.50;99.90;;;;;;5062813;28;20041;-72
2022/12/19 08:21:09;;;;;;;44.30;25.67;;;4.50;99.90;;;;;;5053137;28;20032;-72
2022/12/19 08:23:37;;;;;;;50.67;28.23;;;4.60;99.90;;;;;;5041251;28;20041;-72
2022/12/19 08:26:11;;;;;;;51.23;27.77;;;4.60;99.90;;;;;;5021267;28;20040;-72
2022/12/19 08:28:38;;;;;;;53.43;27.43;;;4.60;99.90;;;;;;5061487;28;20104;-72
2022/12/19 08:31:11;;;;;;;56.87;28.90;;;4.60;99.90;;;;;;5061666;28;20333;-72
2022/12/19 08:33:38;;;;;;;59.63;28.60;;;4.70;99.90;;;;;;5061078;28;20107;-72
2022/12/19 08:36:05;;;;;;;61.27;30.93;;;4.70;99.90;;;;;;5054587;28;20036;-73
2022/12/19 08:38:31;;;;;;;53.33;29.00;;;4.70;99.90;;;;;;5076728;28;20052;-73
2022/12/19 08:40:57;;;;;;;52.07;27.17;;;4.70;99.90;;;;;;5058091;28;20041;-73
2022/12/19 08:43:22;;;;;;;55.73;27.60;;;4.70;99.90;;;;;;5041164;28;20063;-72
2022/12/19 08:45:49;;;;;;;45.90;25.30;;;4.80;99.90;;;;;;5060510;28;20049;-73
2022/12/19 08:48:16;;;;;;;49.60;26.67;;;4.80;99.90;;;;;;5061105;28;20059;-72
2022/12/19 08:50:49;;;;;;;48.73;26.60;;;4.80;99.90;;;;;;5043443;28;20071;-73
2022/12/19 08:53:14;;;;;;;51.23;26.33;;;4.90;99.90;;;;;;5076299;28;20051;-72
2022/12/19 08:55:40;;;;;;;50.40;26.40;;;4.90;99.90;;;;;;5022418;28;20103;-72
2022/12/19 08:58:06;;;;;;;46.83;26.60;;;4.90;99.90;;;;;;5031291;28;20555;-72
2022/12/19 09:00:31;;;;;;;48.40;27.60;;;4.90;99.90;;;;;;5038880;28;20075;-73
2022/12/19 09:02:57;;;;;;;51.40;28.17;;;5.00;99.90;;;;;;5029884;28;20049;-72
2022/12/19 09:05:23;;;;;;;44.03;26.20;;;5.00;99.90;;;;;;5053630;28;20108;-72
2022/12/19 09:07:49;;;;;;;45.90;25.43;;;5.00;99.90;;;;;;5059830;28;20048;-72
2022/12/19 09:10:14;;;;;;;48.60;26.67;;;5.00;99.90;;;;;;5024839;28;20053;-72
2022/12/19 09:12:40;;;;;;;45.23;25.77;;;5.10;99.90;;;;;;5075890;28;20111;-72
2022/12/19 09:15:06;;;;;;;53.90;28.07;;;5.10;99.90;;;;;;5039692;28;20045;-72
2022/12/19 09:17:32;;;;;;;49.97;27.80;;;5.20;99.90;;;;;;5058769;28;20082;-72
2022/12/19 09:19:57;;;;;;;51.53;28.87;;;5.20;99.90;;;;;;5043216;28;20056;-72
2022/12/19 09:22:23;;;;;;;46.67;26.03;;;5.30;99.90;;;;;;5042467;28;20040;-73
2022/12/19 09:24:49;;;;;;;53.37;28.70;;;5.30;99.90;;;;;;5059477;28;20138;-72
2022/12/19 09:27:14;;;;;;;50.33;27.93;;;5.30;99.90;;;;;;5042456;28;20059;-72
2022/12/19 09:29:40;;;;;;;49.20;27.57;;;5.30;99.90;;;;;;5020710;28;20131;-72
2022/12/19 09:32:06;;;;;;;54.43;29.07;;;5.30;99.90;;;;;;5059283;28;20044;-72
2022/12/19 09:34:32;;;;;;;47.43;27.37;;;5.40;99.90;;;;;;5075306;28;20076;-72
2022/12/19 09:36:57;;;;;;;56.40;29.67;;;5.40;99.90;;;;;;5039631;28;20037;-72
2022/12/19 09:39:23;;;;;;;46.83;26.23;;;5.50;99.90;;;;;;5054371;28;20044;-72
2022/12/19 09:42:26;;;;;;;52.07;30.50;;;5.50;99.90;;;;;;5076200;28;20075;-72
2022/12/19 09:45:12;;;;;;;50.13;29.00;;;5.50;99.90;;;;;;5055881;28;20056;-72
2022/12/19 09:47:42;;;;;;;54.00;27.90;;;5.60;99.90;;;;;;5058445;28;20058;-73
2022/12/19 09:50:21;;;;;;;50.80;28.50;;;5.60;99.90;;;;;;5073364;28;20579;-72
2022/12/19 09:52:56;;;;;;;54.97;30.07;;;5.70;99.90;;;;;;5051410;28;20048;-72
2022/12/19 09:55:27;;;;;;;57.03;30.70;;;5.70;99.90;;;;;;5058297;28;20582;-72
2022/12/19 09:58:23;;;;;;;56.25;31.20;;;5.70;99.90;;;;;;5059310;28;20051;-72
2022/12/19 10:00:57;;;;;;;46.43;27.17;;;5.80;99.90;;;;;;5063969;28;20060;-72
2022/12/19 10:03:35;;;;;;;54.83;29.10;;;5.80;99.90;;;;;;5042835;28;20068;-72
2022/12/19 10:06:17;;;;;;;55.17;30.43;;;5.90;99.90;;;;;;5053491;28;20123;-74
2022/12/19 10:08:43;;;;;;;;;;;5.90;99.90;;;;;;5063242;28;20048;-73
2022/12/19 10:11:14;;;;;;;50.10;29.57;;;6.00;99.90;;;;;;5063201;28;20322;-73
2022/12/19 10:13:58;;;;;;;44.53;27.50;;;6.00;99.90;;;;;;5042078;28;20052;-72
2022/12/19 10:16:30;;;;;;;46.83;27.53;;;6.00;99.90;;;;;;5059953;28;20142;-72
2022/12/19 10:19:02;;;;;;;43.88;26.05;;;6.00;99.90;;;;;;5079427;28;20049;-73
2022/12/19 10:21:46;;;;;;;41.40;24.58;;;6.00;99.90;;;;;;5078829;28;20044;-72
2022/12/19 10:24:45;;;;;;;43.47;26.17;;;6.10;99.90;;;;;;5079818;28;20153;-73
2022/12/19 10:27:43;;;;;;;43.57;26.20;;;6.10;99.90;;;;;;5062572;28;20549;-72
2022/12/19 10:30:22;;;;;;;43.00;25.00;;;6.10;99.90;;;;;;5042256;28;20373;-73
2022/12/19 10:32:51;;;;;;;41.47;24.73;;;6.20;99.90;;;;;;5080534;28;20057;-73
2022/12/19 10:35:18;;;;;;;41.17;24.77;;;6.10;99.90;;;;;;5061972;28;20078;-73
2022/12/19 10:37:52;;;;;;;41.43;23.87;;;6.20;99.90;;;;;;5079184;28;20059;-73
2022/12/19 10:40:18;;;;;;;40.90;24.30;;;6.20;99.90;;;;;;5078948;28;20515;-73
2022/12/19 10:42:47;;;;;;;40.47;24.27;;;6.20;99.90;;;;;;5077786;28;20055;-72
2022/12/19 10:45:17;;;;;;;38.20;23.33;;;6.30;99.90;;;;;;5062563;28;20071;-73
2022/12/19 10:47:45;;;;;;;35.97;22.23;;;6.20;99.90;;;;;;5060946;28;20050;-72
2022/12/19 10:50:12;;;;;;;37.13;23.23;;;6.30;99.90;;;;;;5078964;28;20063;-73
2022/12/19 10:52:51;;;;;;;39.00;22.90;;;6.30;99.90;;;;;;5063139;28;20122;-73
2022/12/19 10:56:01;;;;;;;36.37;21.97;;;6.30;99.90;;;;;;5069696;28;20055;-73
2022/12/19 10:58:32;;;;;;;38.03;23.03;;;6.30;99.90;;;;;;5058359;28;20103;-73
2022/12/19 11:01:04;;;;;;;32.37;21.13;;;6.30;99.90;;;;;;5061501;28;20036;-72
2022/12/19 11:03:31;;;;;;;32.78;22.25;;;6.40;99.90;;;;;;5078340;28;20076;-72
2022/12/19 11:05:58;;;;;;;34.60;21.87;;;6.40;99.90;;;;;;5057247;28;20077;-73
2022/12/19 11:08:30;;;;;;;31.83;20.87;;;6.40;99.90;;;;;;5061136;28;20040;-73
2022/12/19 11:11:10;;;;;;;35.40;21.43;;;6.40;99.90;;;;;;5079067;28;20051;-72
2022/12/19 11:13:36;;;;;;;37.00;21.93;;;6.40;99.90;;;;;;5061174;28;20078;-73
2022/12/19 11:16:05;;;;;;;34.17;20.90;;;6.50;99.90;;;;;;5056500;28;20041;-73
2022/12/19 11:18:42;;;;;;;33.03;21.47;;;6.50;99.90;;;;;;5077483;28;20101;-72
2022/12/19 11:21:28;;;;;;;32.80;20.33;;;6.50;99.90;;;;;;5077982;28;20048;-73
2022/12/19 11:24:01;;;;;;;32.40;21.20;;;6.50;99.90;;;;;;5062314;28;20079;-72
2022/12/19 11:26:39;;;;;;;31.53;19.90;;;6.50;99.90;;;;;;5078163;28;20568;-72
2022/12/19 11:29:22;;;;;;;29.00;19.80;;;6.60;99.90;;;;;;5060624;28;20499;-72
2022/12/19 11:31:55;;;;;;;34.50;20.37;;;6.50;99.90;;;;;;5078366;28;20406;-73
2022/12/19 11:34:23;;;;;;;32.77;21.00;;;6.60;99.90;;;;;;5060755;28;20507;-72
2022/12/19 11:36:55;;;;;;;30.20;19.37;;;6.50;99.90;;;;;;5061754;28;20070;-72
2022/12/19 11:39:44;;;;;;;34.55;21.33;;;6.60;99.90;;;;;;5060606;28;20040;-72
2022/12/19 11:42:10;;;;;;;32.17;21.10;;;6.60;99.90;;;;;;5055414;28;20033;-72
2022/12/19 11:45:02;;;;;;;35.10;20.60;;;6.60;99.90;;;;;;5065582;28;20124;-73
2022/12/19 11:48:00;;;;;;;34.13;19.70;;;6.50;99.90;;;;;;5076862;28;20052;-73
2022/12/19 11:50:34;;;;;;;30.50;19.53;;;6.60;99.90;;;;;;5068939;28;20064;-72
2022/12/19 11:53:15;;;;;;;30.77;20.03;;;6.60;99.90;;;;;;5060380;28;20048;-72
2022/12/19 11:56:04;;;;;;;32.20;20.05;;;6.60;99.90;;;;;;5065033;28;20443;-72
2022/12/19 11:58:29;;;;;;;34.73;21.10;;;6.70;99.90;;;;;;5061390;28;20083;-73
2022/12/19 12:01:14;;;;;;;30.13;20.50;;;6.70;99.90;;;;;;5040627;28;20057;-72
2022/12/19 12:04:02;;;;;;;33.43;20.63;;;6.70;99.90;;;;;;5072917;28;20052;-73
2022/12/19 12:06:37;;;;;;;34.20;21.40;;;6.70;99.90;;;;;;5068438;28;20131;-73
2022/12/19 12:09:12;;;;;;;30.70;20.43;;;6.70;99.90;;;;;;5076527;28;20097;-72
2022/12/19 12:11:49;;;;;;;30.23;19.70;;;6.70;99.90;;;;;;5077793;28;20032;-73
2022/12/19 12:14:18;;;;;;;28.87;19.73;;;6.70;99.90;;;;;;5060492;28;20033;-73
2022/12/19 12:17:19;;;;;;;29.73;20.43;;;6.80;99.90;;;;;;5076091;28;20047;-72
2022/12/19 12:19:57;;;;;;;30.00;20.60;;;6.80;99.90;;;;;;5078193;28;20044;-72
2022/12/19 12:22:49;;;;;;;28.13;19.87;;;6.80;99.90;;;;;;5077169;28;20075;-72
2022/12/19 12:25:42;;;;;;;27.55;20.13;;;6.80;99.90;;;;;;5059936;28;20049;-73
2022/12/19 12:28:14;;;;;;;31.53;20.77;;;6.80;99.90;;;;;;5033567;28;20070;-72
2022/12/19 12:31:07;;;;;;;30.23;20.00;;;6.80;99.90;;;;;;5076157;28;20037;-72
2022/12/19 12:33:59;;;;;;;28.70;19.03;;;6.80;99.90;;;;;;5076138;28;20051;-72
2022/12/19 12:36:49;;;;;;;28.15;18.95;;;6.80;99.90;;;;;;5076935;28;20041;-72
2022/12/19 12:39:23;;;;;;;32.17;19.77;;;6.90;99.90;;;;;;5076282;28;20048;-72
2022/12/19 12:42:16;;;;;;;26.83;17.97;;;6.90;99.90;;;;;;5073720;28;20450;-73
2022/12/19 12:44:43;;;;;;;28.60;18.80;;;6.90;99.90;;;;;;5065845;28;20052;-73
2022/12/19 12:47:24;;;;;;;28.30;18.33;;;7.00;99.90;;;;;;5049135;28;20055;-72
2022/12/19 12:49:58;;;;;;;28.27;18.40;;;7.00;99.90;;;;;;5047846;28;20075;-72
2022/12/19 12:52:40;;;;;;;27.30;17.53;;;7.00;99.90;;;;;;5077343;28;20086;-72
2022/12/19 12:55:39;;;;;;;22.60;16.50;;;7.00;99.90;;;;;;5075481;28;20378;-73
2022/12/19 12:58:05;;;;;;;27.10;17.23;;;7.10;99.90;;;;;;5060084;28;20106;-73
2022/12/19 13:00:33;;;;;;;28.93;18.00;;;7.10;99.90;;;;;;5070824;28;20064;-72
2022/12/19 13:03:02;;;;;;;23.30;17.40;;;7.10;99.90;;;;;;5037824;28;20045;-73
2022/12/19 13:05:44;;;;;;;24.00;16.87;;;7.10;99.90;;;;;;5075458;28;20036;-72